Aérodrome :
LOGIN :

S'inscrire | Disclaimer

   EN    FR    IT 

 










Légende :    VFR   VFR Marginal   IFR   IFR Intensif   IFR Très Intensif
Visi : 
Plafond : 
>= 8 km
>= 3000ft
5 à 8 km
1000 à 3000 ft
1500m à 5 km
500 à 1000 ft
800 à 1500m
200 à 500 ft
< 800m
< 200 ft
Symboles :   Orages  Brouillard  Fortes neiges  Fortes précipitations  Vent > 20 kt
SIGMETs :   Divers  Orages  Givrage  Turbulence  Onde Orograph.  Cendres Volcan.







- Altitude de l'aérodrome : 529 ft
- Code IATA : CHR
- Voir les cartes d'approche


LFLX - Chateauroux

DERNIER METAR :
  • 271230Z AUTO 25008KT 220V300 9999 FEW026 SCT041 OVC052 19/12 Q1013 TEMPO 4000 -SHRA BKN014 SCT015TCU

METARs EXPIRÉS :
  • 271200Z AUTO 24011KT 9999 BKN027 OVC033 18/13 Q1013 TEMPO 4000 -SHRA BKN014 SCT015TCU
  • 271130Z AUTO 23007KT 200V270 9999 OVC037 18/12 Q1014 TEMPO 4000 -SHRA BKN014 SCT015TCU
  • 271100Z AUTO 24008KT 200V280 9999 FEW019 OVC036 17/12 Q1014 TEMPO 4000 -RADZ BKN011
  • 271030Z AUTO 25008KT 220V280 9999 BKN019 BKN029 BKN034 17/12 Q1014 TEMPO 4000 -RADZ BKN011
  • 271000Z AUTO 24009KT 9999 BKN018 BKN025 BKN033 16/13 Q1014 TEMPO 4000 -RADZ BKN011

TAF TAF LFLX
Valide du 27 à 12h jusqu'au 28 à 18h UTC


271100Z 2712/2818 24008KT 9999 BKN030
PROB30
TEMPO 2712/2721 4000 -SHRA BKN014 SCT015TCU
TEMPO 2808/2818 4000 SHRA SCT025TCU
PROB40
TEMPO 2811/2818 28015G35KT 2000 TSRA BKN009 SCT030CB
Pas de NOTAMs connus pour ce terrain.



MET'MAP, la Météo Aéronautique d'un coup d'oeil ! - Copyright ORBIFLY Décembre 2007 - Disclaimer

ORBIFLY MET'MAP TEAM :

Programmation & Développement : Alexandra Zaïnal
Conception & Développement : Baudouin d'Aumeries
Co-Programmation & Développement : Marc-Olivier Méhu
Soutien technique & logistique : Manuel Goepfert

Contact : metmap@orbifly.com




SOURCES & CREDITS :

   NOAA